Time;durP1;ratioP1;P1;durP2;ratioP2;P2;SDS_P1;SDS_P2;PMS_P1;PMS_P2;Temp;Humidity;BMP_temperature;BMP_pressure;BME280_temperature;BME280_humidity;BME280_pressure;Samples;Min_cycle;Max_cycle;Signal;HPM_P1;HPM_P2
2023/05/24 00:00:11;;;;;;;8.60;5.22;;;;;;;17.45;100.00;100940.09;2116281;27;20485;-71
2023/05/24 00:01:36;;;;;;;12.25;5.50;;;;;;;17.45;100.00;100937.44;2100805;28;20036;-71
2023/05/24 00:02:58;;;;;;;10.55;5.68;;;;;;;17.45;100.00;100943.66;2112858;28;20048;-71
2023/05/24 00:04:20;;;;;;;8.20;5.85;;;;;;;17.48;100.00;100940.06;2109333;28;20093;-71
2023/05/24 00:05:45;;;;;;;11.70;5.55;;;;;;;17.50;100.00;100939.16;2091430;28;20135;-71
2023/05/24 00:07:07;;;;;;;10.60;5.45;;;;;;;17.50;100.00;100930.25;2117238;27;20039;-71
2023/05/24 00:08:29;;;;;;;9.13;5.55;;;;;;;17.50;100.00;100933.81;2092563;28;20358;-71
2023/05/24 00:09:50;;;;;;;9.02;5.97;;;;;;;17.51;100.00;100927.59;2106866;28;20062;-70
2023/05/24 00:11:12;;;;;;;8.60;5.45;;;;;;;17.52;100.00;100934.66;2091004;28;20033;-71
2023/05/24 00:12:34;;;;;;;8.63;5.40;;;;;;;17.50;100.00;100931.16;2104645;28;20047;-72
2023/05/24 00:13:56;;;;;;;9.27;5.13;;;;;;;17.49;100.00;100923.16;2095998;28;20065;-71
2023/05/24 00:15:19;;;;;;;12.82;5.45;;;;;;;17.50;100.00;100925.81;2093361;28;20040;-71
2023/05/24 00:16:42;;;;;;;12.65;5.50;;;;;;;17.51;100.00;100924.91;2107060;28;20527;-70
2023/05/24 00:18:04;;;;;;;10.45;5.15;;;;;;;17.54;100.00;100922.19;2105302;28;20071;-71
2023/05/24 00:19:26;;;;;;;8.95;5.20;;;;;;;17.58;100.00;100927.53;2092693;28;20043;-71
2023/05/24 00:20:48;;;;;;;8.32;5.40;;;;;;;17.58;100.00;100930.19;2101381;28;20105;-70
2023/05/24 00:22:10;;;;;;;9.75;4.95;;;;;;;17.59;100.00;100931.97;2103972;28;20043;-71
2023/05/24 00:23:33;;;;;;;9.88;4.88;;;;;;;17.60;100.00;100931.94;2104965;28;20369;-70
2023/05/24 00:24:54;;;;;;;10.40;5.20;;;;;;;17.61;100.00;100931.06;2110552;28;20039;-70
2023/05/24 00:26:17;;;;;;;10.18;5.22;;;;;;;17.61;100.00;100932.84;2119433;27;20047;-70
2023/05/24 00:27:47;;;;;;;9.15;4.65;;;;;;;17.62;100.00;100931.94;2097848;28;20087;-70
2023/05/24 00:29:09;;;;;;;9.85;5.00;;;;;;;17.64;100.00;100930.16;2092949;28;20083;-70
2023/05/24 00:30:33;;;;;;;8.50;5.07;;;;;;;17.64;100.00;100927.50;2090630;28;20048;-71
2023/05/24 00:31:54;;;;;;;10.25;5.00;;;;;;;17.66;100.00;100923.00;2096961;28;20449;-71
2023/05/24 00:33:17;;;;;;;10.50;5.65;;;;;;;17.69;100.00;100930.97;2093332;28;20131;-71
2023/05/24 00:34:39;;;;;;;11.02;4.88;;;;;;;17.70;100.00;100925.63;2100473;28;20079;-70
2023/05/24 00:36:01;;;;;;;9.23;4.38;;;;;;;17.72;100.00;100926.47;2099794;28;20044;-71
2023/05/24 00:37:25;;;;;;;7.38;4.40;;;;;;;17.74;100.00;100930.03;2106619;28;20055;-71
2023/05/24 00:38:46;;;;;;;13.93;6.05;;;;;;;17.75;100.00;100929.13;2113630;28;20043;-70
2023/05/24 00:40:12;;;;;;;10.68;5.82;;;;;;;17.77;100.00;100929.13;2105198;28;20044;-71
2023/05/24 00:41:33;;;;;;;13.40;5.75;;;;;;;17.78;100.00;100920.22;2109549;28;20102;-70
2023/05/24 00:42:55;;;;;;;10.38;5.80;;;;;;;17.80;100.00;100926.41;2105908;28;20127;-71
2023/05/24 00:44:17;;;;;;;12.68;5.82;;;;;;;17.82;100.00;100927.28;2097986;28;20043;-70
2023/05/24 00:45:41;;;;;;;15.73;6.43;;;;;;;17.84;100.00;100922.81;2093920;28;20079;-71
2023/05/24 00:47:03;;;;;;;10.63;5.95;;;;;;;17.84;100.00;100912.13;2116925;27;20112;-71
2023/05/24 00:48:27;;;;;;;;;;;;;;;17.82;100.00;100921.94;2100037;28;20563;-71
2023/05/24 00:49:50;;;;;;;11.07;5.82;;;;;;;17.82;100.00;100924.59;2116767;27;19924;-71
2023/05/24 00:51:12;;;;;;;11.57;5.82;;;;;;;17.84;100.00;100923.69;2107766;28;20040;-70
2023/05/24 00:52:35;;;;;;;9.50;5.50;;;;;;;17.84;100.00;100921.03;2096681;28;20524;-71
2023/05/24 00:53:56;;;;;;;13.68;5.72;;;;;;;17.84;100.00;100920.16;2096571;28;20255;-71
2023/05/24 00:55:19;;;;;;;11.73;6.00;;;;;;;17.84;100.00;100920.16;2099620;28;20036;-72
2023/05/24 00:56:41;;;;;;;11.57;5.47;;;;;;;17.83;100.00;100916.59;2094286;28;20052;-71
2023/05/24 00:58:04;;;;;;;9.23;5.53;;;;;;;17.83;100.00;100915.69;2093453;28;20050;-70
2023/05/24 00:59:26;;;;;;;10.40;5.28;;;;;;;17.81;100.00;100912.16;2103368;28;20051;-70
2023/05/24 01:00:51;;;;;;;10.13;5.45;;;;;;;17.81;100.00;100912.16;2096947;28;20056;-71
2023/05/24 01:02:12;;;;;;;12.80;5.78;;;;;;;17.77;100.00;100918.44;2099943;28;20044;-71
2023/05/24 01:03:36;;;;;;;9.68;5.28;;;;;;;17.75;100.00;100922.91;2109805;28;20046;-70
2023/05/24 01:05:00;;;;;;;10.02;5.00;;;;;;;17.74;100.00;100919.34;2102400;28;20044;-71
2023/05/24 01:06:22;;;;;;;12.40;5.40;;;;;;;17.75;100.00;100912.22;2110372;28;20411;-71
2023/05/24 01:07:52;;;;;;;;;;;;;;;17.75;100.00;100917.56;2097064;28;20045;-71
2023/05/24 01:09:22;;;;;;;12.98;5.20;;;;;;;17.75;100.00;100912.22;2110355;28;19934;-71
2023/05/24 01:10:55;;;;;;;12.45;4.93;;;;;;;17.77;100.00;100905.09;2096634;28;20051;-71
2023/05/24 01:12:29;;;;;;;9.23;5.22;;;;;;;17.79;100.00;100913.94;2104843;28;20054;-71
2023/05/24 01:13:58;;;;;;;12.55;5.40;;;;;;;17.80;100.00;100918.38;2103931;28;20565;-71
2023/05/24 01:15:28;;;;;;;15.98;5.78;;;;;;;17.79;100.00;100909.50;2109955;28;20035;-71
2023/05/24 01:16:56;;;;;;;10.98;4.85;;;;;;;17.80;100.00;100905.91;2103458;28;20048;-71
2023/05/24 01:18:29;;;;;;;10.75;4.65;;;;;;;17.81;100.00;100909.47;2101162;28;20135;-71
2023/05/24 01:19:58;;;;;;;12.32;4.88;;;;;;;17.81;100.00;100906.81;2100721;28;20071;-71
2023/05/24 01:21:37;;;;;;;10.00;4.95;;;;;;;17.83;100.00;100910.34;2093634;28;20036;-71
2023/05/24 01:23:15;;;;;;;9.93;5.25;;;;;;;17.86;100.00;100904.97;2109151;28;20043;-71
2023/05/24 01:24:43;;;;;;;13.32;5.22;;;;;;;17.87;100.00;100906.72;2101337;28;20090;-71
2023/05/24 01:26:21;;;;;;;9.38;5.70;;;;;;;17.88;100.00;100908.50;2099673;28;20073;-70
2023/05/24 01:27:44;;;;;;;10.68;5.30;;;;;;;17.88;100.00;100913.84;2109020;28;20135;-71
2023/05/24 01:29:08;;;;;;;14.80;5.95;;;;;;;17.91;100.00;100908.47;2100595;28;20036;-71
2023/05/24 01:30:32;;;;;;;11.50;6.35;;;;;;;17.95;100.00;100909.31;2099681;28;20044;-71
2023/05/24 01:31:54;;;;;;;;;;;;;;;17.92;100.00;100911.13;2094198;28;20121;-71
2023/05/24 01:33:17;;;;;;;8.90;5.03;;;;;;;17.91;100.00;100913.84;2098004;28;20026;-71
2023/05/24 01:34:40;;;;;;;11.35;6.00;;;;;;;17.92;100.00;100912.91;2096007;28;20481;-71
2023/05/24 01:36:03;;;;;;;11.50;5.97;;;;;;;17.95;100.00;100909.31;2100107;28;20052;-71
2023/05/24 01:37:25;;;;;;;15.20;6.80;;;;;;;17.96;100.00;100911.97;2098024;28;20050;-70
2023/05/24 01:38:50;;;;;;;15.38;6.60;;;;;;;17.99;100.00;100922.59;2099737;28;20540;-71
2023/05/24 01:40:12;;;;;;;11.60;6.45;;;;;;;18.01;100.00;100923.50;2108333;28;20040;-71
2023/05/24 01:41:41;;;;;;;9.35;6.32;;;;;;;18.03;100.00;100919.00;2100620;28;20055;-71
2023/05/24 01:43:13;;;;;;;10.40;5.55;;;;;;;18.03;100.00;100919.00;2104987;28;20044;-71
2023/05/24 01:44:39;;;;;;;12.07;6.00;;;;;;;18.03;100.00;100918.13;2103394;28;20044;-71
2023/05/24 01:46:08;;;;;;;10.80;5.97;;;;;;;18.02;100.00;100917.25;2110802;28;20052;-71
2023/05/24 01:47:40;;;;;;;13.05;5.70;;;;;;;18.00;100.00;100916.38;2100981;28;20044;-71
2023/05/24 01:49:13;;;;;;;11.80;6.07;;;;;;;17.99;100.00;100919.94;2103689;28;20052;-71
2023/05/24 01:50:41;;;;;;;13.38;6.40;;;;;;;17.99;100.00;100921.72;2107889;28;20039;-71
2023/05/24 01:52:08;;;;;;;11.85;5.25;;;;;;;17.99;100.00;100927.94;2109596;28;20586;-71
2023/05/24 01:53:33;;;;;;;11.82;5.60;;;;;;;17.98;100.00;100922.66;2110552;28;20031;-71
2023/05/24 01:54:58;;;;;;;9.73;5.82;;;;;;;17.99;100.00;100922.59;2100765;28;20058;-71
2023/05/24 01:56:21;;;;;;;11.23;5.85;;;;;;;17.99;100.00;100927.06;2110634;28;20043;-71
2023/05/24 01:57:47;;;;;;;12.43;6.15;;;;;;;17.99;100.00;100922.59;2098410;28;20051;-71
2023/05/24 01:59:13;;;;;;;10.63;6.10;;;;;;;18.01;100.00;100919.94;2108814;28;20507;-71
2023/05/24 02:00:34;;;;;;;10.57;6.35;;;;;;;17.99;100.00;100927.94;2099351;28;20048;-71
2023/05/24 02:01:57;;;;;;;13.85;6.05;;;;;;;17.99;100.00;100925.28;2099960;28;20036;-71
2023/05/24 02:03:21;;;;;;;13.77;6.10;;;;;;;18.00;100.00;100923.50;2107078;28;20070;-71
2023/05/24 02:04:42;;;;;;;11.27;6.28;;;;;;;18.00;100.00;100920.81;2093485;28;20431;-71
2023/05/24 02:06:05;;;;;;;12.95;5.70;;;;;;;18.00;100.00;100924.38;2093064;28;20142;-71
2023/05/24 02:07:28;;;;;;;11.48;6.43;;;;;;;18.01;100.00;100928.81;2099850;28;20040;-70
2023/05/24 02:08:51;;;;;;;10.77;6.50;;;;;;;18.01;100.00;100923.50;2106315;28;20044;-71
2023/05/24 02:10:12;;;;;;;9.82;6.22;;;;;;;18.01;100.00;100923.50;2105464;28;20495;-71
2023/05/24 02:11:35;;;;;;;10.63;6.60;;;;;;;18.02;100.00;100919.91;2102051;28;20500;-71
2023/05/24 02:12:58;;;;;;;11.40;5.88;;;;;;;18.02;100.00;100930.59;2105297;28;20055;-71
2023/05/24 02:14:23;;;;;;;12.35;6.38;;;;;;;18.03;100.00;100918.13;2104718;28;20053;-71
2023/05/24 02:15:46;;;;;;;14.52;6.03;;;;;;;18.03;100.00;100916.34;2101686;28;20551;-71
2023/05/24 02:17:09;;;;;;;10.70;6.25;;;;;;;18.02;100.00;100917.25;2092763;28;20582;-70
2023/05/24 02:18:33;;;;;;;14.27;6.10;;;;;;;18.04;100.00;100914.56;2099839;28;20099;-71
2023/05/24 02:19:54;;;;;;;12.15;6.75;;;;;;;18.05;100.00;100919.84;2106243;28;20063;-71
2023/05/24 02:21:17;;;;;;;11.52;6.32;;;;;;;18.06;100.00;100921.63;2096312;28;20040;-71
2023/05/24 02:22:38;;;;;;;15.00;6.45;;;;;;;18.07;100.00;100920.72;2096091;28;20054;-71
2023/05/24 02:24:00;;;;;;;13.43;6.63;;;;;;;18.07;100.00;100917.19;2095254;28;20129;-71
2023/05/24 02:25:22;;;;;;;14.20;5.97;;;;;;;18.07;100.00;100920.72;2097260;28;20071;-71
2023/05/24 02:26:44;;;;;;;9.98;6.07;;;;;;;18.08;100.00;100917.16;2098528;28;20032;-71
2023/05/24 02:28:07;;;;;;;14.52;6.28;;;;;;;18.09;100.00;100921.63;2103421;28;20412;-70
2023/05/24 02:29:31;;;;;;;14.75;6.22;;;;;;;18.10;100.00;100925.16;2101651;28;20097;-71
2023/05/24 02:30:54;;;;;;;13.63;6.13;;;;;;;18.09;100.00;100921.63;2110129;28;20051;-71
2023/05/24 02:32:16;;;;;;;14.60;6.22;;;;;;;18.09;100.00;100924.28;2090269;28;20088;-71
2023/05/24 02:33:39;;;;;;;11.15;6.18;;;;;;;18.10;100.00;100922.50;2090572;28;20041;-71
2023/05/24 02:35:00;;;;;;;13.98;6.25;;;;;;;18.10;100.00;100923.38;2089575;28;20090;-71
2023/05/24 02:36:23;;;;;;;14.10;7.03;;;;;;;18.09;100.00;100918.94;2100317;28;20044;-71
2023/05/24 02:37:44;;;;;;;12.07;6.13;;;;;;;18.09;100.00;100921.63;2093045;28;20049;-71
2023/05/24 02:39:07;;;;;;;12.65;6.95;;;;;;;18.09;100.00;100926.06;2094052;28;20052;-71
2023/05/24 02:40:28;;;;;;;13.07;6.80;;;;;;;18.10;100.00;100931.41;2098825;28;20592;-71
2023/05/24 02:41:51;;;;;;;12.70;6.70;;;;;;;18.10;100.00;100925.16;2093343;28;20432;-71
2023/05/24 02:43:12;;;;;;;12.05;6.80;;;;;;;18.10;100.00;100930.50;2094466;28;20040;-70
2023/05/24 02:44:36;;;;;;;15.25;7.63;;;;;;;18.10;100.00;100934.06;2097044;28;20078;-71
2023/05/24 02:45:59;;;;;;;12.27;6.47;;;;;;;18.09;100.00;100943.00;2101169;28;20048;-71
2023/05/24 02:47:20;;;;;;;12.82;7.28;;;;;;;18.07;100.00;100928.75;2102524;28;20554;-71
2023/05/24 02:48:43;;;;;;;10.52;6.65;;;;;;;18.06;100.00;100929.66;2093701;28;20111;-71
2023/05/24 02:50:05;;;;;;;12.50;7.10;;;;;;;18.06;100.00;100928.75;2093937;28;20044;-70
2023/05/24 02:51:28;;;;;;;16.83;7.63;;;;;;;18.06;100.00;100928.75;2094876;28;20048;-70
2023/05/24 02:52:50;;;;;;;10.90;6.40;;;;;;;18.05;100.00;100933.22;2086546;28;20224;-70
2023/05/24 02:54:13;;;;;;;15.45;6.72;;;;;;;18.07;100.00;100930.53;2090773;28;20052;-71
2023/05/24 02:55:36;;;;;;;12.68;6.95;;;;;;;18.08;100.00;100929.63;2086636;28;20053;-71
2023/05/24 02:56:58;;;;;;;17.83;7.35;;;;;;;18.09;100.00;100932.31;2086567;28;20079;-71
2023/05/24 02:58:21;;;;;;;15.75;7.32;;;;;;;18.09;100.00;100936.75;2103219;28;20145;-71
2023/05/24 02:59:45;;;;;;;18.23;7.95;;;;;;;18.09;100.00;100934.09;2091128;28;20056;-71
2023/05/24 03:01:08;;;;;;;10.45;6.47;;;;;;;18.09;100.00;100939.44;2092055;28;20056;-71
2023/05/24 03:02:32;;;;;;;12.60;5.78;;;;;;;18.08;100.00;100937.66;2092448;28;20049;-71
2023/05/24 03:03:56;;;;;;;11.95;5.68;;;;;;;18.08;100.00;100943.88;2093487;28;20067;-71
2023/05/24 03:05:17;;;;;;;13.85;7.10;;;;;;;18.08;100.00;100948.34;2092041;28;20052;-70
2023/05/24 03:06:40;;;;;;;12.65;6.90;;;;;;;18.06;100.00;100944.78;2090681;28;20048;-71
2023/05/24 03:08:01;;;;;;;13.13;6.68;;;;;;;18.07;100.00;100949.25;2086698;28;20098;-71
2023/05/24 03:09:24;;;;;;;10.27;6.30;;;;;;;18.06;100.00;100943.00;2096471;28;20103;-71
2023/05/24 03:10:46;;;;;;;12.93;6.72;;;;;;;18.08;100.00;100953.69;2094149;28;20899;-71
2023/05/24 03:12:10;;;;;;;10.60;6.07;;;;;;;18.08;100.00;100951.00;2091357;28;20571;-71
2023/05/24 03:13:32;;;;;;;9.35;5.90;;;;;;;18.07;100.00;100943.91;2091586;28;20048;-70
2023/05/24 03:14:56;;;;;;;11.30;7.05;;;;;;;18.07;100.00;100947.44;2087605;28;20147;-71
2023/05/24 03:16:18;;;;;;;11.20;6.30;;;;;;;18.10;100.00;100951.88;2087930;28;20032;-70
2023/05/24 03:17:42;;;;;;;10.80;5.72;;;;;;;18.12;100.00;100942.03;2109522;28;20450;-71
2023/05/24 03:19:04;;;;;;;10.40;6.45;;;;;;;18.14;100.00;100953.59;2097755;28;20036;-71
2023/05/24 03:20:27;;;;;;;12.68;7.20;;;;;;;18.14;100.00;100948.25;2102935;28;20056;-71
2023/05/24 03:21:48;;;;;;;12.07;6.68;;;;;;;18.14;100.00;100946.47;2093878;28;20040;-71
2023/05/24 03:23:10;;;;;;;9.65;5.85;;;;;;;18.15;100.00;100950.94;2117201;27;20047;-71
2023/05/24 03:24:33;;;;;;;9.02;5.97;;;;;;;18.14;100.00;100953.59;2099386;28;20138;-71
2023/05/24 03:25:55;;;;;;;9.02;6.07;;;;;;;18.16;100.00;100951.81;2091619;28;20528;-71
2023/05/24 03:27:18;;;;;;;14.52;7.03;;;;;;;18.15;100.00;100958.94;2101101;28;20425;-71
2023/05/24 03:28:41;;;;;;;13.63;6.15;;;;;;;18.17;100.00;100954.47;2096342;28;20051;-70
2023/05/24 03:30:07;;;;;;;12.60;6.53;;;;;;;18.17;100.00;100959.81;2089080;28;20052;-71
2023/05/24 03:31:35;;;;;;;11.20;6.13;;;;;;;18.17;100.00;100954.47;2088672;28;20044;-71
2023/05/24 03:32:58;;;;;;;8.30;5.90;;;;;;;18.19;100.00;100952.63;2098853;28;20048;-71
2023/05/24 03:34:19;;;;;;;18.13;6.30;;;;;;;18.20;100.00;100957.09;2097789;28;20046;-71
2023/05/24 03:35:41;;;;;;;12.43;6.30;;;;;;;18.22;100.00;100962.41;2100212;28;20047;-71
2023/05/24 03:37:05;;;;;;;12.07;6.78;;;;;;;18.23;100.00;100965.09;2095715;28;20147;-70
2023/05/24 03:38:28;;;;;;;11.23;6.50;;;;;;;18.26;100.00;100961.47;2093984;28;20132;-71
2023/05/24 03:39:49;;;;;;;13.95;6.47;;;;;;;18.26;100.00;100962.34;2089746;28;20044;-70
2023/05/24 03:41:28;;;;;;;11.57;5.80;;;;;;;18.25;100.00;100960.56;2104506;28;20040;-70
2023/05/24 03:42:54;;;;;;;11.43;5.68;;;;;;;18.25;100.00;100965.94;2110638;28;20063;-71
2023/05/24 03:44:25;;;;;;;11.50;6.55;;;;;;;18.27;100.00;100961.44;2102537;28;20048;-71
2023/05/24 03:45:47;;;;;;;13.85;6.35;;;;;;;18.30;100.00;100965.88;2104569;28;20048;-71
2023/05/24 03:47:10;;;;;;;11.82;6.38;;;;;;;18.31;100.00;100965.84;2099584;28;20032;-71
2023/05/24 03:48:31;;;;;;;12.27;6.85;;;;;;;18.34;100.00;100970.28;2099519;28;20555;-70
2023/05/24 03:49:54;;;;;;;12.77;6.93;;;;;;;18.37;100.00;100966.69;2100144;28;20074;-71
2023/05/24 03:51:17;;;;;;;12.00;6.28;;;;;;;18.39;100.00;100970.22;2100051;28;20067;-71
2023/05/24 03:52:39;;;;;;;13.55;6.57;;;;;;;18.41;100.00;100971.09;2100265;28;20049;-71
2023/05/24 03:54:01;;;;;;;12.82;6.78;;;;;;;18.42;100.00;100970.19;2097982;28;20040;-71
2023/05/24 03:55:24;;;;;;;11.73;6.30;;;;;;;18.42;100.00;100970.19;2105723;28;20418;-70
2023/05/24 03:56:46;;;;;;;13.43;7.50;;;;;;;18.42;100.00;100968.41;2099243;28;20047;-70
2023/05/24 03:58:08;;;;;;;12.30;7.07;;;;;;;18.43;100.00;100971.97;2109267;27;20159;-71
2023/05/24 03:59:30;;;;;;;11.48;6.35;;;;;;;18.43;100.00;100975.53;2100701;28;20447;-72
2023/05/24 04:00:54;;;;;;;9.00;5.70;;;;;;;18.42;100.00;100973.75;2097408;28;20036;-71
2023/05/24 04:02:17;;;;;;;11.25;6.10;;;;;;;18.44;100.00;100973.72;2117382;27;20051;-70
2023/05/24 04:03:41;;;;;;;11.60;6.43;;;;;;;18.45;100.00;100975.47;2101830;28;20132;-71
2023/05/24 04:05:02;;;;;;;10.48;6.22;;;;;;;18.47;100.00;100979.03;2097479;28;20040;-71
2023/05/24 04:06:27;;;;;;;11.27;6.40;;;;;;;18.47;100.00;100979.03;2103864;28;20076;-70
2023/05/24 04:07:50;;;;;;;11.73;7.13;;;;;;;18.48;100.00;100973.66;2102084;28;20055;-70
2023/05/24 04:09:14;;;;;;;12.13;7.38;;;;;;;18.49;100.00;100972.75;2101229;28;20036;-71
2023/05/24 04:10:37;;;;;;;10.15;6.72;;;;;;;18.48;100.00;100976.34;2119622;27;20054;-70
2023/05/24 04:11:59;;;;;;;13.02;6.70;;;;;;;18.48;100.00;100970.09;2099643;28;20101;-71
2023/05/24 04:13:22;;;;;;;11.82;6.32;;;;;;;18.48;100.00;100975.44;2117257;27;20542;-71
2023/05/24 04:14:44;;;;;;;9.88;6.20;;;;;;;18.49;100.00;100972.75;2102983;28;20113;-71
2023/05/24 04:16:09;;;;;;;10.10;6.55;;;;;;;18.51;100.00;100973.59;2100067;28;20140;-71
2023/05/24 04:17:33;;;;;;;8.82;5.80;;;;;;;18.54;100.00;100968.22;2100934;28;20062;-70
2023/05/24 04:18:57;;;;;;;11.43;6.03;;;;;;;18.58;100.00;100977.09;2094647;28;20078;-71
2023/05/24 04:20:18;;;;;;;13.20;5.50;;;;;;;18.60;100.00;100973.53;2098201;28;20068;-71
2023/05/24 04:21:40;;;;;;;11.07;6.38;;;;;;;18.62;100.00;100978.84;2095095;28;20055;-71
2023/05/24 04:23:03;;;;;;;11.38;6.35;;;;;;;18.62;100.00;100982.41;2107964;28;20483;-71
2023/05/24 04:24:26;;;;;;;11.82;5.63;;;;;;;18.62;100.00;100969.03;2102916;28;20055;-70
2023/05/24 04:25:47;;;;;;;12.65;6.53;;;;;;;18.64;100.00;100972.56;2100220;28;20044;-71
2023/05/24 04:27:10;;;;;;;9.10;5.43;;;;;;;18.65;100.00;100968.97;2098373;28;20051;-71
2023/05/24 04:28:32;;;;;;;13.65;7.22;;;;;;;18.67;100.00;100968.97;2098915;28;20585;-71
2023/05/24 04:29:54;;;;;;;10.85;6.55;;;;;;;18.69;100.00;100976.09;2108465;28;20059;-71
2023/05/24 04:31:17;;;;;;;10.30;6.25;;;;;;;18.72;100.00;100969.78;2108068;28;20052;-70
2023/05/24 04:32:39;;;;;;;10.98;5.80;;;;;;;18.75;100.00;100969.75;2105433;28;20405;-70
2023/05/24 04:34:01;;;;;;;9.68;5.90;;;;;;;18.76;100.00;100968.84;2100171;28;20118;-71
2023/05/24 04:35:25;;;;;;;12.07;6.22;;;;;;;18.77;100.00;100967.06;2100091;28;20047;-71
2023/05/24 04:36:51;;;;;;;12.40;5.82;;;;;;;18.78;100.00;100966.13;2097923;28;20081;-70
2023/05/24 04:38:13;;;;;;;14.02;5.53;;;;;;;18.81;100.00;100968.78;2117444;27;20051;-70
2023/05/24 04:39:35;;;;;;;9.63;5.35;;;;;;;18.82;100.00;100975.91;2099271;28;20139;-71
2023/05/24 04:40:56;;;;;;;9.43;5.38;;;;;;;18.85;100.00;100971.38;2102366;28;20055;-71
2023/05/24 04:42:19;;;;;;;9.18;5.47;;;;;;;18.89;100.00;100977.56;2109644;28;20065;-71
2023/05/24 04:43:40;;;;;;;14.18;5.78;;;;;;;18.93;100.00;100980.16;2102183;28;20048;-72
2023/05/24 04:45:03;;;;;;;7.78;5.07;;;;;;;18.98;100.00;100974.75;2110055;28;20132;-71
2023/05/24 04:46:27;;;;;;;11.70;5.82;;;;;;;19.03;100.00;100981.78;2113705;28;20078;-71
2023/05/24 04:47:50;;;;;;;8.95;5.18;;;;;;;19.06;100.00;100979.06;2110912;28;20048;-71
2023/05/24 04:49:11;;;;;;;12.88;5.57;;;;;;;19.09;100.00;100976.38;2110937;28;20036;-72
2023/05/24 04:50:35;;;;;;;10.77;5.55;;;;;;;19.11;100.00;100985.22;2113243;28;20051;-71
2023/05/24 04:51:58;;;;;;;8.10;5.30;;;;;;;19.15;100.00;100980.72;2108957;28;20446;-71
2023/05/24 04:53:20;;;;;;;10.32;4.95;;;;;;;19.19;100.00;100979.75;2110894;28;20039;-71
2023/05/24 04:54:43;;;;;;;10.93;4.40;;;;;;;19.22;100.00;100979.72;2105096;28;20106;-71
2023/05/24 04:56:06;;;;;;;10.35;5.40;;;;;;;19.22;100.00;100976.16;2104967;28;20051;-70
2023/05/24 04:57:27;;;;;;;8.90;5.20;;;;;;;19.22;100.00;100982.41;2104887;28;20104;-72
2023/05/24 04:58:50;;;;;;;10.93;5.22;;;;;;;19.24;100.00;100974.31;2109119;28;20726;-71
2023/05/24 05:00:14;;;;;;;10.15;4.90;;;;;;;19.24;100.00;100975.22;2108444;28;20066;-71
2023/05/24 05:01:39;;;;;;;8.40;5.32;;;;;;;19.24;100.00;100983.25;2109942;28;20506;-71
2023/05/24 05:03:01;;;;;;;11.75;5.40;;;;;;;19.26;100.00;100981.44;2112836;28;20486;-71
2023/05/24 05:04:23;;;;;;;10.85;5.55;;;;;;;19.27;100.00;100990.34;2107557;28;20052;-71
2023/05/24 05:05:45;;;;;;;12.75;5.55;;;;;;;19.28;100.00;100982.31;2098157;28;20053;-71
2023/05/24 05:07:07;;;;;;;11.30;5.95;;;;;;;19.30;100.00;100982.25;2108079;28;20190;-71
2023/05/24 05:08:30;;;;;;;13.82;6.43;;;;;;;19.31;100.00;100984.91;2106542;28;20492;-71
2023/05/24 05:09:53;;;;;;;10.88;5.18;;;;;;;19.33;100.00;100984.91;2109822;28;20534;-71
2023/05/24 05:11:14;;;;;;;13.35;5.72;;;;;;;19.36;100.00;100990.22;2106252;28;20095;-71
2023/05/24 05:12:37;;;;;;;10.77;5.68;;;;;;;19.37;100.00;100986.59;2100253;28;20055;-71
2023/05/24 05:14:00;;;;;;;9.45;5.50;;;;;;;19.40;100.00;100987.44;2110392;28;20055;-71
2023/05/24 05:15:23;;;;;;;11.15;5.65;;;;;;;19.45;100.00;100990.03;2104991;28;20040;-71
2023/05/24 05:16:48;;;;;;;11.05;5.50;;;;;;;19.48;100.00;100992.72;2099816;28;20150;-70
2023/05/24 05:18:10;;;;;;;13.05;5.55;;;;;;;19.50;100.00;100988.19;2106080;28;20044;-71
2023/05/24 05:19:31;;;;;;;12.95;6.32;;;;;;;19.53;100.00;100993.50;2110542;28;20143;-71
2023/05/24 05:20:54;;;;;;;11.93;5.13;;;;;;;19.55;100.00;100991.69;2102726;28;20170;-71
2023/05/24 05:22:15;;;;;;;12.07;5.88;;;;;;;19.57;100.00;100992.53;2109523;28;20404;-71
2023/05/24 05:23:38;;;;;;;12.40;5.85;;;;;;;19.56;100.00;100993.44;2096773;28;20505;-71
2023/05/24 05:25:01;;;;;;;12.73;6.15;;;;;;;19.53;100.00;100989.94;2094275;28;20439;-71
2023/05/24 05:26:22;;;;;;;12.48;6.07;;;;;;;19.50;100.00;100997.09;2110533;28;20101;-71
2023/05/24 05:27:45;;;;;;;15.52;6.45;;;;;;;19.50;100.00;100994.44;2104451;28;20510;-71
2023/05/24 05:29:07;;;;;;;14.68;6.70;;;;;;;19.51;100.00;101000.66;2094018;28;20139;-70
2023/05/24 05:30:30;;;;;;;16.70;6.30;;;;;;;19.52;100.00;100999.78;2099826;28;20070;-71
2023/05/24 05:31:54;;;;;;;12.52;6.43;;;;;;;19.52;100.00;100999.78;2093607;28;20049;-71
2023/05/24 05:33:16;;;;;;;14.60;7.20;;;;;;;19.53;100.00;101004.22;2104476;28;20080;-71
2023/05/24 05:34:38;;;;;;;11.38;6.57;;;;;;;19.54;100.00;100999.75;2100487;28;20458;-71
2023/05/24 05:36:00;;;;;;;10.13;6.63;;;;;;;19.52;100.00;100997.09;2102046;28;20054;-71
2023/05/24 05:37:23;;;;;;;10.10;6.38;;;;;;;19.55;100.00;101012.22;2108406;28;20105;-71
2023/05/24 05:38:45;;;;;;;13.25;7.00;;;;;;;19.58;100.00;101005.00;2102192;28;20515;-71
2023/05/24 05:40:09;;;;;;;11.38;6.50;;;;;;;19.62;100.00;101004.06;2106171;28;20037;-72
2023/05/24 05:41:31;;;;;;;14.13;6.50;;;;;;;19.65;100.00;101004.00;2110966;28;20530;-71
2023/05/24 05:42:52;;;;;;;13.05;6.90;;;;;;;19.69;100.00;101000.34;2110669;28;20530;-71
2023/05/24 05:44:15;;;;;;;13.35;6.85;;;;;;;19.71;100.00;101003.88;2112073;28;20048;-71
2023/05/24 05:45:38;;;;;;;10.73;6.38;;;;;;;19.75;100.00;100999.38;2109823;28;20102;-71
2023/05/24 05:47:02;;;;;;;12.00;7.35;;;;;;;19.76;100.00;100999.31;2110223;28;20131;-71
2023/05/24 05:48:26;;;;;;;12.48;6.78;;;;;;;19.79;100.00;101001.97;2101287;28;20496;-71
2023/05/24 05:49:49;;;;;;;14.00;7.35;;;;;;;19.85;100.00;101000.97;2099771;28;20059;-71
2023/05/24 05:51:10;;;;;;;12.50;6.60;;;;;;;19.90;100.00;101004.44;2091271;28;20037;-71
2023/05/24 05:52:33;;;;;;;8.85;6.15;;;;;;;19.95;100.00;101001.69;2090760;28;20048;-72
2023/05/24 05:53:55;;;;;;;12.75;6.30;;;;;;;19.99;100.00;100998.91;2099395;28;20052;-71
2023/05/24 05:55:22;;;;;;;9.65;6.25;;;;;;;20.05;100.00;101000.56;2106958;28;20104;-71
2023/05/24 05:56:46;;;;;;;13.07;6.65;;;;;;;20.08;100.00;101001.41;2109974;28;20043;-71
2023/05/24 05:58:08;;;;;;;11.80;6.80;;;;;;;20.12;100.00;101007.59;2110915;28;20059;-70
2023/05/24 05:59:31;;;;;;;12.77;6.55;;;;;;;20.17;100.00;101008.38;2101822;28;20056;-71
2023/05/24 06:00:53;;;;;;;12.23;6.40;;;;;;;20.18;100.00;100997.63;2105303;28;20052;-70
2023/05/24 06:02:17;;;;;;;11.68;7.07;;;;;;;20.20;100.00;101009.22;2100896;28;20096;-70
2023/05/24 06:03:40;;;;;;;14.60;6.85;;;;;;;20.23;100.00;101000.22;2097695;28;20044;-71
2023/05/24 06:05:03;;;;;;;9.65;5.78;;;;;;;20.26;100.00;101006.41;2099264;28;20759;-71
2023/05/24 06:06:25;;;;;;;13.15;6.80;;;;;;;20.28;100.00;101006.38;2108072;28;20039;-71
2023/05/24 06:07:48;;;;;;;10.68;6.07;;;;;;;20.30;100.00;101012.56;2101834;28;20203;-71
2023/05/24 06:09:10;;;;;;;10.00;6.22;;;;;;;20.30;100.00;101008.09;2109222;28;20047;-70
2023/05/24 06:10:33;;;;;;;11.10;6.63;;;;;;;20.31;100.00;101011.66;2101002;28;20488;-71
2023/05/24 06:11:55;;;;;;;11.85;6.32;;;;;;;20.35;100.00;101012.53;2103816;28;20431;-70
2023/05/24 06:13:17;;;;;;;12.32;6.40;;;;;;;20.36;100.00;101015.16;2109171;28;20039;-72
2023/05/24 06:14:40;;;;;;;14.18;6.70;;;;;;;20.36;100.00;101009.81;2111661;28;20051;-71
2023/05/24 06:16:02;;;;;;;10.93;5.90;;;;;;;20.35;100.00;101007.19;2112280;28;20082;-71
2023/05/24 06:17:26;;;;;;;10.57;6.07;;;;;;;20.32;100.00;101008.06;2112043;28;20047;-71
2023/05/24 06:18:49;;;;;;;11.50;6.43;;;;;;;20.27;100.00;101010.88;2101596;28;20044;-71
2023/05/24 06:20:14;;;;;;;13.68;6.97;;;;;;;20.23;100.00;101006.47;2109440;28;20058;-71